首页
METAR-TAF:

METAR-TAF

机场 :

重庆, 中华人民共和国

重庆江北国际机场

纬度: 29-31N, 经度: 106-29E, 海拔: 351米

当前天气观测

该预报发布于22分钟前的22:00 UTC
风速2节,风向多变
温度 17°C
湿度 94%
气压 1016 hPa
能見度: 6000
少量云层高于300英尺
散云层高于900英尺
阴天层高于3300英尺
小雨, 碎片雾

METAR: ZUCK 252200Z VRB01MPS 6000 -RA BCFG FEW003 SCT009 OVC033 17/16 Q1016 NOSIG

时间: 06:22 (22:22 UTC)

预报

该预报发布于7小时和18分钟前的15:04 UTC
预报有效从25日的 18点(UTC)到 26日的 18点(UTC)
风速6节,风向南转西南
能見度: 3500
少量云层高于1000英尺
散云层高于1500英尺
阴天层高于4000英尺
小雨, 轻雾
成为
从 25日的 22点(UTC)到 25日的 23点(UTC)
能見度: 2800
少量云层高于300英尺
散云层高于1500英尺
阴天层高于4000英尺
轻雾
成为
从 26日的 02点(UTC)到 26日的 03点(UTC)
能見度: 5000
散云层高于1500英尺
多云层高于5000英尺

TAF: ZUCK 251504Z 2518/2618 20003MPS 3500 -RA BR FEW010 SCT015 OVC040 TX20/2608Z TN14/2522Z BECMG 2522/2523 2800 BR FEW003 SCT015 OVC040 BECMG 2602/2603 5000 SCT015 BKN050

超过4000个机场的气象观测和天气预报(METAR&TAF报告)。

可查询的气象台以黄色和红色小点在地图上表示。

将鼠标移到小点上方,可查看气象台名称。

然后点击查看天气观测和预报。

如需切换地图:点击带黑十字的绿色按钮放大地图;点击带横线的绿色按钮缩小地图;或者点击绿色箭头查看邻近地区的地图。


METAR-TAF: